METAR Data
IDs: Format: Raw Decoded Include TAF

Data at: 1539 UTC 03 Dec 2021

METAR for:KPUB (Pueblo Mem Arpt, CO, US)
Text:KPUB 031453Z 13006KT 10SM CLR 03/M09 A3017 RMK AO2 SLPNO T00331089 53037
Temperature: 3.3°C ( 38°F)
Dewpoint: -8.9°C ( 16°F) [RH = 40%]
Pressure (altimeter):30.17 inches Hg (1021.8 mb)
Winds:from the SE (130 degrees) at 7 MPH (6 knots; 3.1 m/s)
Visibility:10 or more sm (16+ km)
Ceiling:at least 12,000 feet AGL
Clouds:sky clear below 12,000 feet AGL